Kirtland, NM (87417)

9:35 AM MDT on August 20, 2014 (GMT -0600)
Four Corners Regional | Change Station
CLOSE
Current Station
Airport
Location: Farmington,
Elevation: 5502 ft
Nearby Weather Stations

Elev 5502 ft 36.74 °N, 108.23 °W | Updated 42 minutes ago

Clear
Clear
66 °F
Feels Like 66 °F
N
5
Wind Variable Wind from West

Today
High -- | Low -- °F
--% Chance of Precip.
Yesterday
High -- | Low -- °F
Precip. -- in
6:34 AM 7:58 PM
Waning Crescent, 21% visible
Pressure 29.96 in
Visibility 10.0 miles
Clouds Clear
Dew Point 56 °F
Humidity 70%
Rainfall 0.00 in
Snow Depth Not available.
UV 3 out of 12
Pollen 5.60 out of 12
Air Quality Not available.
Flu Activity Not available.
METAR KFMN 201453Z 26004KT 10SM CLR 19/13 A3011 RMK AO2 SLP144 T01890133 51012

More Conditions Fewer Conditions

Pressure 29.96 in
Visibility 10.0 miles
Clouds Clear
Dew Point 56 °F
Humidity 70%
Rainfall 0.00 in
Snow Depth Not available.
UV 3 out of 12
Pollen 5.60 out of 12
Air Quality Not available.
Flu Activity Not available.
METAR KFMN 201453Z 26004KT 10SM CLR 19/13 A3011 RMK AO2 SLP144 T01890133 51012

More Conditions Fewer Conditions

10-Day Weather Forecast

Almanac

Astronomy

Aug. 20, 2014 Rise Set
Actual Time 6:34 AM MDT 7:58 PM MDT
Civil Twilight 6:07 AM MDT 8:25 PM MDT
Nautical Twilight 5:35 AM MDT 8:57 PM MDT
Astronomical Twilight 5:00 AM MDT 9:31 PM MDT
Moon 2:20 AM MDT 4:42 PM MDT
Length of Visible Light 14h 17m
Length of Day
13h 23m
Tomorrow will be 2m 7s shorter.
Waning Crescent, 21% of the Moon is Illuminated
Today
Waning Crescent
Aug 25
New
Sep 2
First Quarter
Sep 8
Full
Sep 15
Last Quarter

Today's Extremes

State Highs State Lows

Community

WunderPhotos

Upload Photos

1,745,667 photos uploaded!

WunderBlogs® & News

Nearby

Snow Depth

Station Depth Elevation
Chamita 0 in 8400 ft
Senorita Divide #2 0 in 8600 ft
Bateman 0 in 9300 ft
Hopewell 0 in 10000 ft
Quemazon 1 in 9500 ft

Earthquake Activity

City Distance Mag. Time & Date
No recent earthquake activity has been reported nearby.
Minimum magnitude displayed is 2.5.

Coastal Water Temperatures

Place Temperature
No Stations Reporting

Nearby Weather Stations